Time;durP1;ratioP1;P1;durP2;ratioP2;P2;SDS_P1;SDS_P2;PMS_P1;PMS_P2;Temp;Humidity;BMP_temperature;BMP_pressure;BME280_temperature;BME280_humidity;BME280_pressure;Samples;Min_cycle;Max_cycle;Signal;HPM_P1;HPM_P2
2023/11/22 00:02:28;;;;;;;9.60;5.07;;;4.40;88.30;;;;;;5070882;28;20202;-75
2023/11/22 00:04:56;;;;;;;9.23;5.10;;;4.30;88.20;;;;;;5070525;28;20312;-73
2023/11/22 00:07:23;;;;;;;10.13;5.87;;;4.20;88.20;;;;;;5067294;28;20246;-75
2023/11/22 00:09:50;;;;;;;9.80;5.97;;;4.20;88.30;;;;;;5053172;28;20679;-73
2023/11/22 00:12:17;;;;;;;10.27;5.23;;;4.20;88.40;;;;;;5054384;28;20286;-73
2023/11/22 00:14:47;;;;;;;8.80;5.00;;;4.20;88.50;;;;;;5064971;28;20185;-74
2023/11/22 00:17:14;;;;;;;7.13;4.60;;;4.20;88.60;;;;;;5066472;28;20551;-74
2023/11/22 00:19:41;;;;;;;9.90;5.40;;;4.20;88.70;;;;;;5051079;28;20224;-74
2023/11/22 00:22:13;;;;;;;10.67;5.90;;;4.20;88.80;;;;;;5071009;28;20201;-73
2023/11/22 00:24:40;;;;;;;9.37;5.77;;;4.20;88.80;;;;;;5052249;28;20612;-74
2023/11/22 00:27:07;;;;;;;10.00;5.60;;;4.20;88.90;;;;;;5054755;28;20224;-74
2023/11/22 00:29:35;;;;;;;10.80;6.03;;;4.30;89.00;;;;;;5069670;28;20200;-75
2023/11/22 00:32:04;;;;;;;11.13;6.10;;;4.30;88.90;;;;;;5049864;28;20213;-75
2023/11/22 00:34:31;;;;;;;12.37;6.27;;;4.40;88.90;;;;;;5049645;28;20205;-75
2023/11/22 00:36:58;;;;;;;12.20;6.27;;;4.40;88.80;;;;;;5069155;28;20262;-75
2023/11/22 00:39:26;;;;;;;8.90;5.40;;;4.40;88.80;;;;;;5052335;28;20685;-75
2023/11/22 00:41:53;;;;;;;11.17;5.23;;;4.40;88.90;;;;;;5053370;28;20298;-75
2023/11/22 00:44:20;;;;;;;10.97;6.40;;;4.40;89.80;;;;;;5071945;28;20296;-73
2023/11/22 00:46:47;;;;;;;10.83;5.47;;;4.40;89.20;;;;;;5071764;28;20200;-71
2023/11/22 00:49:15;;;;;;;9.87;5.23;;;4.40;89.20;;;;;;5091124;28;20185;-75
2023/11/22 00:51:43;;;;;;;9.40;5.13;;;4.40;89.20;;;;;;5095237;28;20611;-75
2023/11/22 00:54:10;;;;;;;8.63;4.80;;;4.50;89.50;;;;;;5077944;28;20201;-75
2023/11/22 00:56:39;;;;;;;6.93;4.40;;;4.50;89.50;;;;;;5095554;28;20184;-75
2023/11/22 00:59:20;;;;;;;7.03;4.60;;;4.40;89.50;;;;;;5073507;28;20194;-75
2023/11/22 01:01:47;;;;;;;8.23;4.70;;;4.40;89.70;;;;;;5053002;28;20292;-73
2023/11/22 01:04:16;;;;;;;6.97;4.37;;;4.40;89.80;;;;;;5070625;28;20229;-76
2023/11/22 01:06:43;;;;;;;8.37;4.50;;;4.50;89.90;;;;;;5052403;28;20705;-77
2023/11/22 01:09:13;;;;;;;7.67;4.77;;;4.50;90.00;;;;;;5070486;28;20300;-77
2023/11/22 01:11:45;;;;;;;6.10;4.40;;;4.50;90.00;;;;;;5052300;28;20225;-77
2023/11/22 01:14:12;;;;;;;7.87;4.97;;;4.50;90.00;;;;;;5052492;28;20267;-76
2023/11/22 01:16:39;;;;;;;7.73;4.60;;;4.60;90.10;;;;;;5047280;28;20256;-77
2023/11/22 01:19:06;;;;;;;8.83;4.97;;;4.60;90.10;;;;;;5054619;28;20198;-76
2023/11/22 01:21:36;;;;;;;9.27;5.07;;;4.60;90.20;;;;;;5072002;28;20678;-76
2023/11/22 01:24:03;;;;;;;9.70;5.70;;;4.60;90.20;;;;;;5070836;28;20243;-77
2023/11/22 01:26:30;;;;;;;8.83;5.30;;;4.60;90.30;;;;;;5051274;28;20221;-76
2023/11/22 01:28:58;;;;;;;10.23;5.90;;;4.60;90.30;;;;;;5069853;28;20229;-77
2023/11/22 01:31:27;;;;;;;8.43;5.10;;;4.60;90.40;;;;;;5051607;28;20701;-77
2023/11/22 01:33:54;;;;;;;10.10;5.27;;;4.60;90.40;;;;;;5054505;28;20212;-71
2023/11/22 01:36:21;;;;;;;13.13;6.87;;;4.70;90.50;;;;;;5052190;28;20218;-72
2023/11/22 01:38:52;;;;;;;9.80;5.97;;;4.70;90.50;;;;;;5043865;28;20271;-73
2023/11/22 01:41:19;;;;;;;9.00;5.03;;;4.70;90.60;;;;;;5051619;28;20202;-74
2023/11/22 01:43:46;;;;;;;8.40;4.63;;;4.70;90.50;;;;;;5069973;28;20590;-73
2023/11/22 01:46:23;;;;;;;10.73;6.17;;;4.70;90.60;;;;;;5061485;28;20187;-74
2023/11/22 01:48:53;;;;;;;9.00;4.57;;;4.70;90.70;;;;;;5056385;28;20571;-74
2023/11/22 01:51:21;;;;;;;8.43;4.90;;;4.70;90.70;;;;;;5073018;28;20221;-74
2023/11/22 01:53:50;;;;;;;7.93;4.77;;;4.70;90.70;;;;;;5073492;28;20212;-75
2023/11/22 01:56:18;;;;;;;8.70;4.80;;;4.60;90.70;;;;;;5058563;28;20243;-75
2023/11/22 01:58:45;;;;;;;6.67;4.30;;;4.60;90.80;;;;;;5058372;28;20198;-75
2023/11/22 02:01:13;;;;;;;9.23;5.77;;;4.60;90.90;;;;;;5055097;28;20201;-76
2023/11/22 02:03:41;;;;;;;11.50;6.20;;;4.70;90.90;;;;;;5072747;28;20230;-72
2023/11/22 02:06:10;;;;;;;8.03;4.97;;;4.70;90.90;;;;;;5055845;28;21018;-73
2023/11/22 02:08:37;;;;;;;10.37;5.73;;;4.70;90.90;;;;;;5073787;28;20222;-75
2023/11/22 02:11:06;;;;;;;8.73;4.83;;;4.70;90.90;;;;;;5072876;28;20640;-75
2023/11/22 02:13:33;;;;;;;8.53;4.53;;;4.70;91.00;;;;;;5053703;28;20202;-76
2023/11/22 02:16:04;;;;;;;9.17;5.10;;;4.70;90.90;;;;;;5055191;28;20194;-75
2023/11/22 02:18:33;;;;;;;10.37;5.60;;;4.70;91.00;;;;;;5066966;28;20222;-76
2023/11/22 02:21:01;;;;;;;8.70;5.10;;;4.70;91.20;;;;;;5073262;28;20189;-74
2023/11/22 02:23:32;;;;;;;10.10;5.53;;;4.70;91.00;;;;;;5072646;28;20259;-74
2023/11/22 02:26:00;;;;;;;10.17;5.50;;;4.70;91.10;;;;;;5055110;28;20635;-74
2023/11/22 02:28:27;;;;;;;10.53;6.00;;;4.70;91.00;;;;;;5072522;28;20533;-74
2023/11/22 02:30:54;;;;;;;12.07;5.53;;;4.70;91.00;;;;;;5052726;28;20224;-73
2023/11/22 02:33:23;;;;;;;10.73;5.17;;;4.70;91.00;;;;;;5054235;28;20209;-74
2023/11/22 02:35:50;;;;;;;7.77;4.73;;;4.80;91.00;;;;;;5055506;28;20216;-74
2023/11/22 02:38:18;;;;;;;9.37;4.93;;;4.80;91.00;;;;;;5054839;28;20266;-74
2023/11/22 02:40:47;;;;;;;8.10;4.50;;;4.80;91.10;;;;;;5073051;28;20239;-73
2023/11/22 02:43:14;;;;;;;8.37;5.27;;;4.80;91.00;;;;;;5053651;28;20225;-74
2023/11/22 02:45:43;;;;;;;11.03;5.77;;;4.80;91.00;;;;;;5054954;28;20238;-74
2023/11/22 02:48:16;;;;;;;8.63;5.00;;;4.80;91.00;;;;;;5053879;28;20240;-75
2023/11/22 02:50:43;;;;;;;9.13;5.20;;;4.80;91.10;;;;;;5052715;28;20204;-75
2023/11/22 02:53:10;;;;;;;12.27;6.40;;;4.80;91.10;;;;;;5054412;28;20585;-74
2023/11/22 02:55:38;;;;;;;13.10;5.80;;;4.80;91.10;;;;;;5071232;28;20189;-75
2023/11/22 02:58:06;;;;;;;10.67;5.97;;;4.80;91.20;;;;;;5065891;28;20201;-74
2023/11/22 03:00:34;;;;;;;12.37;5.70;;;4.70;91.20;;;;;;5071691;28;20197;-75
2023/11/22 03:03:03;;;;;;;10.40;5.67;;;4.70;91.20;;;;;;5052663;28;20260;-76
2023/11/22 03:05:30;;;;;;;10.47;5.40;;;4.70;91.30;;;;;;5071070;28;20316;-75
2023/11/22 03:07:58;;;;;;;11.00;5.93;;;4.60;91.30;;;;;;5054754;28;20634;-76
2023/11/22 03:10:26;;;;;;;14.43;6.47;;;4.60;91.40;;;;;;5048105;28;20279;-76
2023/11/22 03:12:54;;;;;;;15.63;6.63;;;4.50;91.50;;;;;;5066369;28;20209;-77
2023/11/22 03:15:22;;;;;;;17.20;7.73;;;4.40;91.50;;;;;;5071564;28;20282;-74
2023/11/22 03:17:49;;;;;;;29.20;11.77;;;4.40;91.60;;;;;;5052360;28;20198;-74
2023/11/22 03:20:17;;;;;;;28.00;11.40;;;4.40;91.70;;;;;;5055254;28;20205;-73
2023/11/22 03:22:44;;;;;;;26.93;10.97;;;4.40;91.80;;;;;;5071805;28;20568;-73
2023/11/22 03:25:12;;;;;;;24.70;11.07;;;4.50;91.80;;;;;;5052307;28;20198;-74
2023/11/22 03:27:41;;;;;;;21.00;9.00;;;4.50;91.80;;;;;;5048554;28;20201;-76
2023/11/22 03:30:10;;;;;;;17.50;8.20;;;4.50;91.90;;;;;;5071041;28;20280;-77
2023/11/22 03:32:40;;;;;;;18.17;7.47;;;4.40;91.90;;;;;;5051236;28;20218;-75
2023/11/22 03:35:08;;;;;;;16.30;8.17;;;4.40;92.00;;;;;;5071684;28;20619;-74
2023/11/22 03:37:35;;;;;;;21.93;9.23;;;4.40;92.00;;;;;;5061434;28;20197;-77
2023/11/22 03:40:03;;;;;;;22.33;10.47;;;4.40;92.10;;;;;;5055334;28;20635;-76
2023/11/22 03:42:31;;;;;;;19.63;9.67;;;4.40;92.20;;;;;;5052812;28;20218;-74
2023/11/22 03:44:59;;;;;;;17.43;8.10;;;4.30;92.20;;;;;;5054578;28;20660;-72
2023/11/22 03:47:27;;;;;;;16.20;7.53;;;4.30;92.30;;;;;;5062566;28;20204;-73
2023/11/22 03:49:55;;;;;;;13.37;6.70;;;4.30;92.30;;;;;;5070863;28;20193;-75
2023/11/22 03:52:22;;;;;;;17.50;7.90;;;4.30;92.40;;;;;;5071364;28;20262;-71
2023/11/22 03:54:49;;;;;;;14.60;8.10;;;4.30;92.50;;;;;;5070738;28;20218;-72
2023/11/22 03:57:16;;;;;;;14.60;7.57;;;4.40;92.60;;;;;;5069380;28;20403;-73
2023/11/22 03:59:47;;;;;;;14.37;7.40;;;4.40;92.60;;;;;;5052577;28;20209;-72
2023/11/22 04:02:14;;;;;;;12.83;7.30;;;4.40;92.60;;;;;;5068780;28;20197;-72
2023/11/22 04:04:41;;;;;;;18.20;8.57;;;4.30;92.60;;;;;;5049629;28;20233;-72
2023/11/22 04:07:09;;;;;;;17.03;8.57;;;4.30;92.70;;;;;;5049723;28;20198;-71
2023/11/22 04:09:38;;;;;;;15.03;7.73;;;4.30;92.70;;;;;;5052916;28;20535;-72
2023/11/22 04:12:06;;;;;;;13.63;7.17;;;4.30;92.80;;;;;;5049668;28;20202;-72
2023/11/22 04:14:33;;;;;;;10.40;5.83;;;4.30;92.80;;;;;;5051092;28;20204;-72
2023/11/22 04:17:00;;;;;;;10.40;6.30;;;4.30;92.90;;;;;;5049209;28;20201;-72
2023/11/22 04:19:27;;;;;;;9.97;5.80;;;4.30;92.90;;;;;;5050940;28;20255;-72
2023/11/22 04:21:54;;;;;;;10.57;5.60;;;4.30;92.90;;;;;;5049557;28;20198;-72
2023/11/22 04:24:23;;;;;;;9.23;4.93;;;4.20;93.00;;;;;;5048961;28;20213;-72
2023/11/22 04:26:50;;;;;;;9.67;5.00;;;4.20;93.00;;;;;;5050650;28;20245;-72
2023/11/22 04:29:17;;;;;;;7.97;4.60;;;4.20;93.10;;;;;;5051166;28;20197;-72
2023/11/22 04:31:44;;;;;;;8.90;4.80;;;4.30;93.20;;;;;;5048607;28;20267;-72
2023/11/22 04:34:11;;;;;;;8.83;4.40;;;4.30;93.20;;;;;;5050670;28;20271;-72
2023/11/22 04:36:38;;;;;;;6.93;4.27;;;4.40;93.30;;;;;;5049530;28;20202;-72
2023/11/22 04:39:08;;;;;;;8.27;4.87;;;4.40;93.30;;;;;;5048592;28;20209;-72
2023/11/22 04:41:36;;;;;;;7.27;4.27;;;4.40;93.30;;;;;;5049903;28;20268;-72
2023/11/22 04:44:04;;;;;;;7.53;4.43;;;4.40;93.30;;;;;;5049432;28;20193;-71
2023/11/22 04:46:33;;;;;;;10.93;5.20;;;4.50;93.30;;;;;;5048803;28;20194;-73
2023/11/22 04:49:00;;;;;;;8.57;4.37;;;4.40;93.30;;;;;;5054256;28;20189;-74
2023/11/22 04:51:29;;;;;;;11.37;5.87;;;4.40;93.30;;;;;;5058933;28;20215;-74
2023/11/22 04:53:56;;;;;;;10.83;5.63;;;4.40;93.50;;;;;;5051167;28;20212;-76
2023/11/22 04:56:25;;;;;;;11.73;5.83;;;4.40;93.50;;;;;;5050105;28;20680;-73
2023/11/22 04:58:54;;;;;;;9.60;5.20;;;4.30;93.50;;;;;;5049192;28;20292;-70
2023/11/22 05:01:25;;;;;;;11.47;5.63;;;4.30;93.60;;;;;;5046881;28;20248;-70
2023/11/22 05:03:52;;;;;;;12.30;6.60;;;4.30;93.70;;;;;;5048740;28;20307;-71
2023/11/22 05:06:19;;;;;;;12.63;6.30;;;4.30;93.70;;;;;;5047735;28;20212;-73
2023/11/22 05:08:46;;;;;;;11.37;6.43;;;4.40;93.80;;;;;;5040699;28;20621;-71
2023/11/22 05:11:15;;;;;;;10.80;6.00;;;4.40;93.80;;;;;;5049374;28;20232;-71
2023/11/22 05:13:42;;;;;;;10.33;5.80;;;4.40;93.80;;;;;;5049660;28;20292;-70
2023/11/22 05:16:11;;;;;;;14.50;6.47;;;4.40;93.90;;;;;;5047037;28;20206;-70
2023/11/22 05:18:41;;;;;;;11.40;5.90;;;4.40;94.00;;;;;;5048421;28;20199;-69
2023/11/22 05:21:08;;;;;;;12.10;5.83;;;4.40;94.00;;;;;;5045052;28;20200;-72
2023/11/22 05:23:37;;;;;;;9.30;4.87;;;4.40;94.10;;;;;;5041086;28;20194;-70
2023/11/22 05:26:04;;;;;;;12.63;5.87;;;4.40;94.20;;;;;;5053928;28;20204;-72
2023/11/22 05:28:32;;;;;;;11.60;5.87;;;4.40;94.30;;;;;;5048813;28;20210;-72
2023/11/22 05:30:59;;;;;;;11.70;5.43;;;4.50;94.50;;;;;;5051087;28;20595;-71
2023/11/22 05:33:27;;;;;;;14.57;5.50;;;4.50;94.50;;;;;;5055077;28;20632;-71
2023/11/22 05:35:54;;;;;;;15.67;6.23;;;4.50;94.60;;;;;;5057327;28;20210;-73
2023/11/22 05:38:22;;;;;;;12.30;5.73;;;4.50;94.70;;;;;;5069923;28;20195;-73
2023/11/22 05:40:49;;;;;;;10.87;5.60;;;4.60;94.80;;;;;;5076967;28;20175;-70
2023/11/22 05:43:17;;;;;;;8.90;4.93;;;4.60;94.90;;;;;;5075259;28;20267;-67
2023/11/22 05:45:49;;;;;;;10.73;5.27;;;4.50;94.80;;;;;;5054685;28;20200;-68
2023/11/22 05:48:16;;;;;;;10.53;5.53;;;4.50;94.90;;;;;;5049607;28;20282;-68
2023/11/22 05:50:45;;;;;;;10.70;4.83;;;4.40;94.90;;;;;;5063689;28;20225;-68
2023/11/22 05:53:12;;;;;;;11.90;5.47;;;4.40;95.00;;;;;;5050051;28;20233;-68
2023/11/22 05:55:39;;;;;;;14.33;5.73;;;4.40;95.10;;;;;;5048227;28;20203;-70
2023/11/22 05:58:15;;;;;;;11.97;6.53;;;4.40;95.20;;;;;;5051756;28;20205;-70
2023/11/22 06:00:43;;;;;;;10.13;5.10;;;4.40;95.30;;;;;;5052046;28;20193;-71
2023/11/22 06:03:10;;;;;;;11.50;5.83;;;4.40;95.30;;;;;;5044680;28;20186;-70
2023/11/22 06:05:41;;;;;;;13.10;6.63;;;4.40;95.40;;;;;;5073109;28;20233;-69
2023/11/22 06:08:10;;;;;;;13.23;6.00;;;4.30;95.40;;;;;;5055555;28;20208;-71
2023/11/22 06:10:38;;;;;;;10.40;6.00;;;4.30;95.40;;;;;;5065305;28;20553;-69
2023/11/22 06:13:05;;;;;;;9.53;5.63;;;4.30;95.50;;;;;;5067758;28;20361;-69
2023/11/22 06:15:32;;;;;;;10.30;5.73;;;4.30;95.60;;;;;;5073628;28;20789;-72
2023/11/22 06:17:59;;;;;;;11.60;6.47;;;4.30;95.70;;;;;;5044269;28;20661;-70
2023/11/22 06:20:28;;;;;;;9.83;5.70;;;4.30;95.80;;;;;;5070959;28;20593;-71
2023/11/22 06:22:55;;;;;;;12.67;6.23;;;4.30;95.90;;;;;;5072823;28;20249;-70
2023/11/22 06:25:23;;;;;;;9.50;6.20;;;4.30;96.00;;;;;;5069935;28;20189;-71
2023/11/22 06:27:51;;;;;;;8.30;5.50;;;4.30;96.10;;;;;;5064554;28;20202;-72
2023/11/22 06:30:18;;;;;;;10.63;6.63;;;4.30;96.10;;;;;;5055587;28;20204;-70
2023/11/22 06:32:45;;;;;;;10.43;6.37;;;4.40;96.30;;;;;;5072483;28;20296;-70
2023/11/22 06:35:14;;;;;;;9.73;6.20;;;4.40;96.30;;;;;;5061069;28;20199;-70
2023/11/22 06:37:41;;;;;;;9.30;5.63;;;4.40;96.30;;;;;;5072831;28;20263;-70
2023/11/22 06:40:09;;;;;;;8.23;5.33;;;4.40;96.40;;;;;;5072926;28;20645;-70
2023/11/22 06:42:38;;;;;;;7.87;5.03;;;4.30;96.50;;;;;;5065126;28;20192;-70
2023/11/22 06:45:09;;;;;;;5.77;3.70;;;4.30;96.60;;;;;;5068081;28;20282;-70
2023/11/22 06:47:37;;;;;;;5.37;3.77;;;4.30;96.70;;;;;;5070438;28;20273;-70
2023/11/22 06:50:09;;;;;;;6.70;3.93;;;4.20;96.80;;;;;;5076223;28;20286;-70
2023/11/22 06:52:36;;;;;;;5.87;4.13;;;4.20;96.90;;;;;;5066560;28;20213;-68
2023/11/22 06:55:03;;;;;;;7.97;4.57;;;4.20;97.00;;;;;;5071623;28;20276;-68
2023/11/22 06:57:30;;;;;;;6.33;4.60;;;4.30;97.20;;;;;;5069695;28;20235;-70
2023/11/22 07:00:04;;;;;;;7.80;4.10;;;4.30;97.30;;;;;;5064118;28;20629;-70
2023/11/22 07:02:31;;;;;;;7.07;4.17;;;4.30;97.30;;;;;;5070333;28;20194;-72
2023/11/22 07:05:00;;;;;;;7.17;4.40;;;4.30;97.40;;;;;;5071655;28;20311;-72
2023/11/22 07:07:27;;;;;;;6.50;4.10;;;4.40;97.50;;;;;;5068675;28;20221;-72
2023/11/22 07:09:54;;;;;;;5.87;3.50;;;4.40;97.50;;;;;;5053921;28;20572;-72
2023/11/22 07:12:22;;;;;;;5.73;4.23;;;4.40;97.60;;;;;;5071767;28;20205;-69
2023/11/22 07:14:49;;;;;;;8.70;4.97;;;4.40;97.70;;;;;;5051939;28;20698;-68
2023/11/22 07:17:18;;;;;;;10.60;4.93;;;4.40;97.80;;;;;;5049621;28;20225;-68
2023/11/22 07:19:48;;;;;;;8.47;4.70;;;4.50;97.90;;;;;;5061526;28;20193;-67
2023/11/22 07:22:22;;;;;;;7.87;4.37;;;4.50;98.00;;;;;;5067491;28;20247;-68
2023/11/22 07:24:51;;;;;;;6.03;3.77;;;4.50;98.10;;;;;;5062632;28;20308;-68
2023/11/22 07:27:22;;;;;;;5.30;3.63;;;4.50;98.40;;;;;;5061781;28;20272;-68
2023/11/22 07:29:52;;;;;;;4.00;3.10;;;4.50;98.60;;;;;;5044221;28;20270;-68
2023/11/22 07:32:21;;;;;;;4.30;3.47;;;4.60;98.80;;;;;;5068881;28;20259;-68
2023/11/22 07:34:55;;;;;;;3.87;3.17;;;4.60;99.00;;;;;;5050059;28;20201;-68
2023/11/22 07:37:23;;;;;;;3.73;2.90;;;4.60;99.10;;;;;;5066850;28;20213;-69
2023/11/22 07:39:51;;;;;;;4.40;3.43;;;4.70;99.40;;;;;;5068354;28;20687;-69
2023/11/22 07:42:18;;;;;;;5.30;3.70;;;4.70;99.60;;;;;;5049435;28;20217;-68
2023/11/22 07:44:46;;;;;;;3.53;3.03;;;4.80;99.90;;;;;;5067661;28;20267;-68
2023/11/22 07:47:13;;;;;;;4.03;3.30;;;4.80;99.90;;;;;;5064552;28;20289;-68
2023/11/22 07:49:44;;;;;;;3.30;3.00;;;4.80;99.90;;;;;;5066355;28;20701;-68
2023/11/22 07:52:13;;;;;;;3.60;2.83;;;4.90;99.90;;;;;;5067991;28;20210;-68
2023/11/22 07:54:40;;;;;;;4.23;3.03;;;5.10;99.90;;;;;;5068720;28;20213;-68
2023/11/22 07:57:09;;;;;;;4.37;3.10;;;5.40;99.90;;;;;;5064860;28;20207;-68
2023/11/22 07:59:37;;;;;;;3.83;3.00;;;5.60;99.90;;;;;;5051871;28;20247;-69
2023/11/22 08:02:07;;;;;;;3.20;2.67;;;5.70;99.90;;;;;;5060807;28;20203;-69
2023/11/22 08:04:34;;;;;;;7.13;3.00;;;5.70;99.90;;;;;;5060046;28;20231;-68
2023/11/22 08:07:03;;;;;;;7.03;2.90;;;5.70;99.90;;;;;;5064870;28;20230;-69
2023/11/22 08:09:32;;;;;;;3.63;2.77;;;5.00;99.90;;;;;;5066047;28;20191;-68
2023/11/22 08:12:00;;;;;;;3.73;2.83;;;5.70;99.90;;;;;;5060843;28;20199;-69
2023/11/22 08:14:28;;;;;;;4.10;2.80;;;5.70;99.90;;;;;;5066748;28;20291;-70
2023/11/22 08:16:55;;;;;;;2.97;2.53;;;5.70;99.90;;;;;;5040076;28;20195;-69
2023/11/22 08:19:24;;;;;;;3.57;2.63;;;5.80;99.90;;;;;;5065855;28;20198;-69
2023/11/22 08:21:51;;;;;;;3.73;2.40;;;5.80;99.90;;;;;;5060427;28;20928;-69
2023/11/22 08:24:20;;;;;;;3.17;2.67;;;5.80;99.90;;;;;;5068339;28;20187;-68
2023/11/22 08:26:47;;;;;;;3.27;2.37;;;5.90;99.90;;;;;;5065383;28;20613;-69
2023/11/22 08:29:14;;;;;;;2.70;2.40;;;5.90;99.90;;;;;;5064062;28;20272;-69
2023/11/22 08:31:41;;;;;;;2.27;2.07;;;5.90;99.90;;;;;;5064273;28;20607;-68
2023/11/22 08:34:09;;;;;;;2.37;2.17;;;5.90;99.90;;;;;;5062029;28;20234;-68
2023/11/22 08:36:36;;;;;;;2.33;2.00;;;5.90;99.90;;;;;;5062962;28;20196;-69
2023/11/22 08:39:04;;;;;;;8.37;3.13;;;6.00;99.90;;;;;;5063196;28;20195;-69
2023/11/22 08:41:34;;;;;;;2.40;2.20;;;6.10;99.90;;;;;;5068385;28;20208;-69
2023/11/22 08:44:01;;;;;;;2.77;2.40;;;6.10;99.90;;;;;;5060439;28;20265;-69
2023/11/22 08:46:28;;;;;;;3.17;2.57;;;6.10;99.90;;;;;;5067511;28;20643;-68
2023/11/22 08:49:02;;;;;;;4.70;2.90;;;6.10;99.90;;;;;;5066178;28;20688;-71
2023/11/22 08:51:29;;;;;;;3.67;2.73;;;6.10;99.90;;;;;;5071159;28;20204;-70
2023/11/22 08:53:56;;;;;;;3.50;2.97;;;6.10;99.90;;;;;;5068253;28;20222;-70
2023/11/22 08:56:26;;;;;;;3.17;2.67;;;6.10;99.90;;;;;;5055079;28;20299;-70
2023/11/22 08:58:55;;;;;;;3.30;2.80;;;6.10;99.90;;;;;;5064587;28;20238;-70
2023/11/22 09:01:42;;;;;;;3.17;2.47;;;6.10;99.90;;;;;;5062959;28;20559;-71
2023/11/22 09:04:09;;;;;;;4.93;3.70;;;6.10;99.90;;;;;;5063878;28;20590;-70
2023/11/22 09:06:40;;;;;;;5.13;4.00;;;6.10;99.90;;;;;;5046798;28;20259;-71
2023/11/22 09:09:08;;;;;;;4.97;3.40;;;6.10;99.90;;;;;;5067706;28;20207;-70
2023/11/22 09:11:46;;;;;;;4.47;3.10;;;6.20;99.90;;;;;;5066255;28;20386;-71
2023/11/22 09:14:16;;;;;;;4.53;3.50;;;6.30;99.90;;;;;;5066514;28;20215;-70
2023/11/22 09:16:43;;;;;;;6.13;3.90;;;6.40;99.90;;;;;;5067109;28;20192;-69
2023/11/22 09:19:11;;;;;;;6.33;4.13;;;6.60;99.90;;;;;;5065370;28;20200;-70
2023/11/22 09:21:38;;;;;;;5.37;4.07;;;6.70;99.90;;;;;;5068423;28;20200;-70
2023/11/22 09:24:06;;;;;;;6.43;4.17;;;6.70;99.90;;;;;;5067388;28;20193;-71
2023/11/22 09:26:34;;;;;;;4.93;3.87;;;6.60;99.90;;;;;;5065972;28;20193;-70
2023/11/22 09:29:01;;;;;;;5.63;3.63;;;6.60;99.90;;;;;;5067185;28;20193;-70
2023/11/22 09:31:31;;;;;;;4.47;3.57;;;6.60;99.90;;;;;;5045184;28;20275;-70
2023/11/22 09:33:58;;;;;;;5.30;2.83;;;6.60;99.90;;;;;;5067753;28;20644;-70
2023/11/22 09:36:27;;;;;;;2.80;2.60;;;6.60;99.90;;;;;;5050358;28;20201;-69
2023/11/22 09:38:55;;;;;;;4.23;3.33;;;6.60;99.90;;;;;;5064951;28;20623;-70
2023/11/22 09:41:24;;;;;;;3.43;2.70;;;6.70;99.90;;;;;;5049558;28;20207;-70
2023/11/22 09:43:52;;;;;;;3.20;2.80;;;6.70;99.90;;;;;;5067280;28;20194;-70
2023/11/22 09:46:21;;;;;;;3.37;2.43;;;6.80;99.90;;;;;;5058559;28;20200;-69
2023/11/22 09:48:50;;;;;;;2.63;2.10;;;6.90;99.90;;;;;;5051058;28;20208;-70
2023/11/22 09:51:24;;;;;;;3.73;2.70;;;7.20;99.90;;;;;;5071797;28;20250;-69
2023/11/22 09:53:58;;;;;;;2.97;2.47;;;7.40;99.90;;;;;;5047625;28;20213;-69
2023/11/22 09:56:25;;;;;;;4.17;2.33;;;7.70;99.90;;;;;;5067862;28;20263;-69
2023/11/22 09:58:55;;;;;;;3.50;2.70;;;8.00;99.90;;;;;;5066282;28;20228;-70
2023/11/22 10:01:23;;;;;;;4.23;3.07;;;8.10;99.90;;;;;;5048344;28;20209;-70
2023/11/22 10:03:56;;;;;;;3.40;2.53;;;8.10;99.90;;;;;;5067539;28;20197;-70
2023/11/22 10:06:23;;;;;;;3.47;2.77;;;8.10;99.90;;;;;;5049317;28;20224;-70
2023/11/22 10:08:53;;;;;;;4.37;3.30;;;8.20;99.90;;;;;;5086293;28;20200;-70
2023/11/22 10:11:25;;;;;;;3.40;2.67;;;8.30;99.90;;;;;;5078012;28;20269;-70
2023/11/22 10:13:52;;;;;;;2.80;2.50;;;8.40;99.90;;;;;;5068936;28;20274;-70
2023/11/22 10:16:20;;;;;;;3.00;2.53;;;8.50;99.80;;;;;;5070829;28;20274;-69
2023/11/22 10:18:49;;;;;;;4.97;3.10;;;8.50;99.70;;;;;;5065207;28;20197;-70
2023/11/22 10:21:23;;;;;;;3.47;2.90;;;8.50;99.50;;;;;;5063668;28;20281;-70
2023/11/22 10:23:52;;;;;;;3.77;3.10;;;8.50;99.60;;;;;;5054494;28;20292;-70
2023/11/22 10:26:20;;;;;;;4.67;2.80;;;8.60;99.50;;;;;;5052104;28;20817;-70
2023/11/22 10:28:47;;;;;;;3.03;2.53;;;8.50;99.40;;;;;;5065603;28;20201;-69
2023/11/22 10:31:15;;;;;;;3.57;2.43;;;8.50;99.40;;;;;;5069181;28;20191;-69
2023/11/22 10:33:43;;;;;;;2.40;2.20;;;8.50;99.40;;;;;;5068548;28;20209;-69
2023/11/22 10:36:12;;;;;;;3.17;2.30;;;8.40;99.40;;;;;;5061648;28;20201;-70
2023/11/22 10:38:40;;;;;;;23.20;5.00;;;8.40;99.50;;;;;;5070279;28;20718;-69
2023/11/22 10:41:10;;;;;;;18.77;5.33;;;8.50;99.60;;;;;;5067544;28;20285;-69
2023/11/22 10:43:37;;;;;;;22.33;5.13;;;8.50;99.60;;;;;;5052168;28;20590;-70
2023/11/22 10:46:06;;;;;;;16.07;4.70;;;8.60;99.50;;;;;;5046718;28;20644;-69
2023/11/22 10:48:33;;;;;;;7.83;3.70;;;8.50;99.50;;;;;;5067286;28;20274;-69
2023/11/22 10:51:04;;;;;;;9.67;3.20;;;8.50;99.60;;;;;;5064630;28;20194;-69
2023/11/22 10:53:34;;;;;;;5.03;2.57;;;8.50;99.60;;;;;;5064921;28;20201;-69
2023/11/22 10:56:11;;;;;;;2.37;2.13;;;8.40;99.60;;;;;;5051321;28;20204;-69
2023/11/22 10:58:47;;;;;;;3.83;2.10;;;8.30;99.60;;;;;;5068961;28;20351;-69
2023/11/22 11:01:17;;;;;;;2.60;2.27;;;8.30;99.70;;;;;;5070103;28;20192;-70
2023/11/22 11:03:55;;;;;;;2.13;1.70;;;8.30;99.70;;;;;;5043118;28;20194;-69
2023/11/22 11:06:28;;;;;;;4.63;1.93;;;8.20;99.60;;;;;;5060467;28;20217;-70
2023/11/22 11:08:58;;;;;;;2.00;1.90;;;8.10;99.60;;;;;;5071810;28;20209;-69
2023/11/22 11:11:28;;;;;;;5.47;2.50;;;8.00;99.50;;;;;;5067391;28;20200;-69
2023/11/22 11:13:55;;;;;;;2.50;2.20;;;7.90;99.50;;;;;;5069423;28;20206;-70
2023/11/22 11:16:24;;;;;;;2.57;1.80;;;7.80;99.50;;;;;;5065425;28;20322;-69
2023/11/22 11:18:52;;;;;;;1.40;1.30;;;7.80;99.60;;;;;;5070154;28;20201;-69
2023/11/22 11:21:20;;;;;;;1.70;1.60;;;7.80;99.60;;;;;;5069844;28;20287;-70
2023/11/22 11:23:47;;;;;;;1.50;1.40;;;7.80;99.60;;;;;;5062786;28;20194;-70
2023/11/22 11:26:21;;;;;;;1.83;1.30;;;7.80;99.60;;;;;;5047655;28;20638;-69
2023/11/22 11:28:52;;;;;;;3.33;2.20;;;7.80;99.60;;;;;;5069307;28;20189;-69
2023/11/22 11:31:22;;;;;;;4.10;1.80;;;7.90;99.40;;;;;;5047906;28;20607;-70
2023/11/22 11:33:59;;;;;;;1.80;1.70;;;8.00;99.40;;;;;;5069476;28;20223;-69
2023/11/22 11:36:27;;;;;;;1.53;1.43;;;8.00;99.20;;;;;;5069583;28;20674;-69
2023/11/22 11:38:55;;;;;;;1.60;1.30;;;8.10;99.10;;;;;;5066701;28;20204;-70
2023/11/22 11:41:27;;;;;;;1.50;1.10;;;8.10;99.00;;;;;;5069418;28;20248;-69
2023/11/22 11:43:57;;;;;;;4.07;1.17;;;8.00;98.90;;;;;;5049465;28;20226;-69
2023/11/22 11:46:29;;;;;;;1.40;1.30;;;8.10;98.80;;;;;;5066871;28;20723;-70
2023/11/22 11:48:57;;;;;;;1.00;1.00;;;8.10;98.70;;;;;;5049314;28;20267;-69
2023/11/22 11:51:25;;;;;;;0.90;0.90;;;8.00;98.60;;;;;;5037173;28;20202;-69
2023/11/22 11:53:53;;;;;;;1.53;1.30;;;8.00;98.60;;;;;;5054039;28;20288;-69
2023/11/22 11:56:21;;;;;;;1.50;1.40;;;8.00;98.40;;;;;;5069326;28;20596;-69
2023/11/22 11:58:49;;;;;;;1.50;1.40;;;8.00;98.30;;;;;;5063836;28;20201;-70
2023/11/22 12:01:20;;;;;;;1.77;1.33;;;8.00;98.30;;;;;;5068498;28;20206;-69
2023/11/22 12:03:47;;;;;;;1.47;1.20;;;7.90;98.20;;;;;;5068165;28;20511;-69
2023/11/22 12:06:16;;;;;;;1.43;1.33;;;7.80;98.20;;;;;;5065418;28;20289;-69
2023/11/22 12:08:43;;;;;;;2.13;1.50;;;7.90;98.30;;;;;;5065127;28;20203;-69
2023/11/22 12:11:10;;;;;;;2.40;1.83;;;7.90;98.30;;;;;;5049962;28;20226;-69
2023/11/22 12:13:39;;;;;;;2.50;2.27;;;7.90;98.20;;;;;;5065879;28;20219;-69
2023/11/22 12:16:10;;;;;;;2.90;2.17;;;7.90;98.20;;;;;;5068259;28;20293;-69
2023/11/22 12:18:43;;;;;;;3.07;2.23;;;7.90;98.20;;;;;;5063893;28;20308;-69
2023/11/22 12:21:12;;;;;;;2.57;2.20;;;7.90;98.20;;;;;;5065281;28;20615;-69
2023/11/22 12:23:40;;;;;;;3.97;2.23;;;8.00;98.20;;;;;;5065777;28;20197;-69
2023/11/22 12:26:12;;;;;;;4.87;2.90;;;8.00;98.20;;;;;;5047026;28;20297;-69
2023/11/22 12:28:41;;;;;;;4.00;3.10;;;8.00;98.20;;;;;;5067530;28;20255;-69
2023/11/22 12:31:09;;;;;;;2.80;2.50;;;8.00;98.20;;;;;;5067214;28;20260;-70
2023/11/22 12:33:37;;;;;;;3.97;2.90;;;7.90;98.20;;;;;;5064314;28;20254;-69
2023/11/22 12:36:06;;;;;;;3.07;2.60;;;8.60;98.50;;;;;;5068243;28;20225;-69
2023/11/22 12:38:35;;;;;;;5.37;3.53;;;7.80;98.20;;;;;;5068047;28;20200;-69
2023/11/22 12:41:03;;;;;;;4.90;3.50;;;7.80;98.20;;;;;;5062607;28;20246;-70
2023/11/22 12:43:30;;;;;;;5.90;3.67;;;7.80;98.30;;;;;;5067490;28;20205;-70
2023/11/22 12:46:01;;;;;;;5.67;3.43;;;7.70;98.20;;;;;;5067489;28;20192;-69
2023/11/22 12:48:29;;;;;;;6.73;4.00;;;7.70;98.20;;;;;;5053877;28;20251;-69
2023/11/22 12:50:57;;;;;;;6.93;4.07;;;7.70;98.30;;;;;;5064714;28;20217;-69
2023/11/22 12:53:27;;;;;;;5.90;3.70;;;7.70;98.30;;;;;;5053609;28;20715;-70
2023/11/22 12:55:55;;;;;;;4.67;2.93;;;7.60;98.30;;;;;;5063660;28;20300;-69
2023/11/22 12:58:24;;;;;;;6.77;3.67;;;7.60;98.30;;;;;;5052876;28;20527;-69
2023/11/22 13:00:57;;;;;;;6.23;3.37;;;7.60;98.40;;;;;;5042800;28;20665;-69